sensor_id;sensor_type;location;lat;lon;timestamp;pressure;altitude;pressure_sealevel;temperature
19102;BMP280;9683;49.028;12.064;2022-07-24T00:00:45;97613.41;;;24.24
19102;BMP280;9683;49.028;12.064;2022-07-24T00:03:12;97615.31;;;24.23
19102;BMP280;9683;49.028;12.064;2022-07-24T00:05:39;97606.06;;;24.24
19102;BMP280;9683;49.028;12.064;2022-07-24T00:08:05;97607.34;;;24.27
19102;BMP280;9683;49.028;12.064;2022-07-24T00:10:32;97612.50;;;24.28
19102;BMP280;9683;49.028;12.064;2022-07-24T00:12:59;97622.59;;;24.28
19102;BMP280;9683;49.028;12.064;2022-07-24T00:15:27;97616.81;;;24.29
19102;BMP280;9683;49.028;12.064;2022-07-24T00:17:54;97624.16;;;24.29
19102;BMP280;9683;49.028;12.064;2022-07-24T00:20:21;97619.13;;;24.22
19102;BMP280;9683;49.028;12.064;2022-07-24T00:22:48;97621.97;;;24.17
19102;BMP280;9683;49.028;12.064;2022-07-24T00:25:14;97619.28;;;24.12
19102;BMP280;9683;49.028;12.064;2022-07-24T00:27:41;97620.22;;;24.07
19102;BMP280;9683;49.028;12.064;2022-07-24T00:30:09;97617.59;;;24.02
19102;BMP280;9683;49.028;12.064;2022-07-24T00:32:37;97625.31;;;23.95
19102;BMP280;9683;49.028;12.064;2022-07-24T00:35:05;97624.91;;;23.88
19102;BMP280;9683;49.028;12.064;2022-07-24T00:37:31;97617.44;;;23.80
19102;BMP280;9683;49.028;12.064;2022-07-24T00:39:58;97620.84;;;23.72
19102;BMP280;9683;49.028;12.064;2022-07-24T00:42:24;97626.09;;;23.68
19102;BMP280;9683;49.028;12.064;2022-07-24T00:44:51;97616.81;;;23.69
19102;BMP280;9683;49.028;12.064;2022-07-24T00:47:18;97616.81;;;23.69
19102;BMP280;9683;49.028;12.064;2022-07-24T00:49:46;97616.44;;;23.76
19102;BMP280;9683;49.028;12.064;2022-07-24T00:52:13;97613.09;;;23.79
19102;BMP280;9683;49.028;12.064;2022-07-24T00:54:39;97606.16;;;23.73
19102;BMP280;9683;49.028;12.064;2022-07-24T00:57:06;97603.81;;;23.66
19102;BMP280;9683;49.028;12.064;2022-07-24T00:59:33;97607.34;;;23.67
19102;BMP280;9683;49.028;12.064;2022-07-24T01:01:59;97609.56;;;23.65
19102;BMP280;9683;49.028;12.064;2022-07-24T01:04:26;97613.59;;;23.67
19102;BMP280;9683;49.028;12.064;2022-07-24T01:06:54;97607.44;;;23.75
19102;BMP280;9683;49.028;12.064;2022-07-24T01:09:21;97608.75;;;23.78
19102;BMP280;9683;49.028;12.064;2022-07-24T01:11:48;97596.69;;;23.84
19102;BMP280;9683;49.028;12.064;2022-07-24T01:14:15;97612.53;;;23.82
19102;BMP280;9683;49.028;12.064;2022-07-24T01:16:42;97609.81;;;23.82
19102;BMP280;9683;49.028;12.064;2022-07-24T01:19:09;97602.41;;;23.83
19102;BMP280;9683;49.028;12.064;2022-07-24T01:21:37;97607.56;;;23.84
19102;BMP280;9683;49.028;12.064;2022-07-24T01:24:04;97602.13;;;23.84
19102;BMP280;9683;49.028;12.064;2022-07-24T01:26:31;97606.28;;;23.82
19102;BMP280;9683;49.028;12.064;2022-07-24T01:28:58;97600.03;;;23.81
19102;BMP280;9683;49.028;12.064;2022-07-24T01:31:24;97607.38;;;23.81
19102;BMP280;9683;49.028;12.064;2022-07-24T01:33:51;97602.41;;;23.83
19102;BMP280;9683;49.028;12.064;2022-07-24T01:36:18;97604.66;;;23.81
19102;BMP280;9683;49.028;12.064;2022-07-24T01:38:46;97603.13;;;23.74
19102;BMP280;9683;49.028;12.064;2022-07-24T01:41:12;97608.66;;;23.69
19102;BMP280;9683;49.028;12.064;2022-07-24T01:43:39;97608.66;;;23.69
19102;BMP280;9683;49.028;12.064;2022-07-24T01:46:06;97617.59;;;23.70
19102;BMP280;9683;49.028;12.064;2022-07-24T01:48:32;97610.94;;;23.62
19102;BMP280;9683;49.028;12.064;2022-07-24T01:50:59;97615.38;;;23.58
19102;BMP280;9683;49.028;12.064;2022-07-24T01:53:26;97610.53;;;23.55
19102;BMP280;9683;49.028;12.064;2022-07-24T01:55:54;97612.34;;;23.60
19102;BMP280;9683;49.028;12.064;2022-07-24T01:58:20;97614.47;;;23.63
19102;BMP280;9683;49.028;12.064;2022-07-24T02:00:47;97611.97;;;23.66
19102;BMP280;9683;49.028;12.064;2022-07-24T02:03:14;97606.53;;;23.66
19102;BMP280;9683;49.028;12.064;2022-07-24T02:05:40;97619.03;;;23.67
19102;BMP280;9683;49.028;12.064;2022-07-24T02:08:07;97610.34;;;23.65
19102;BMP280;9683;49.028;12.064;2022-07-24T02:10:34;97610.94;;;23.62
19102;BMP280;9683;49.028;12.064;2022-07-24T02:13:02;97616.38;;;23.62
19102;BMP280;9683;49.028;12.064;2022-07-24T02:15:29;97607.53;;;23.57
19102;BMP280;9683;49.028;12.064;2022-07-24T02:17:57;97608.09;;;23.54
19102;BMP280;9683;49.028;12.064;2022-07-24T02:20:25;97609.50;;;23.51
19102;BMP280;9683;49.028;12.064;2022-07-24T02:22:52;97604.06;;;23.51
19102;BMP280;9683;49.028;12.064;2022-07-24T02:25:19;97607.59;;;23.52
19102;BMP280;9683;49.028;12.064;2022-07-24T02:27:46;97608.41;;;23.52
19102;BMP280;9683;49.028;12.064;2022-07-24T02:30:16;97611.69;;;23.49
19102;BMP280;9683;49.028;12.064;2022-07-24T02:32:43;97608.81;;;23.41
19102;BMP280;9683;49.028;12.064;2022-07-24T02:35:09;97616.47;;;23.39
19102;BMP280;9683;49.028;12.064;2022-07-24T02:37:37;97611.84;;;23.39
19102;BMP280;9683;49.028;12.064;2022-07-24T02:40:05;97611.84;;;23.39
19102;BMP280;9683;49.028;12.064;2022-07-24T02:42:32;97608.00;;;23.40
19102;BMP280;9683;49.028;12.064;2022-07-24T02:44:59;97613.44;;;23.40
19102;BMP280;9683;49.028;12.064;2022-07-24T02:47:27;97617.56;;;23.38
19102;BMP280;9683;49.028;12.064;2022-07-24T02:49:53;97618.09;;;23.40
19102;BMP280;9683;49.028;12.064;2022-07-24T02:52:20;97616.97;;;23.41
19102;BMP280;9683;49.028;12.064;2022-07-24T02:54:47;97618.88;;;23.40
19102;BMP280;9683;49.028;12.064;2022-07-24T02:57:13;97627.56;;;23.42
19102;BMP280;9683;49.028;12.064;2022-07-24T02:59:40;97630.03;;;23.44
19102;BMP280;9683;49.028;12.064;2022-07-24T03:02:07;97614.53;;;23.44
19102;BMP280;9683;49.028;12.064;2022-07-24T03:04:35;97619.38;;;23.47
19102;BMP280;9683;49.028;12.064;2022-07-24T03:07:01;97614.53;;;23.44
19102;BMP280;9683;49.028;12.064;2022-07-24T03:09:28;97616.97;;;23.41
19102;BMP280;9683;49.028;12.064;2022-07-24T03:11:54;97616.69;;;23.42
19102;BMP280;9683;49.028;12.064;2022-07-24T03:14:21;97619.97;;;23.44
19102;BMP280;9683;49.028;12.064;2022-07-24T03:16:48;97625.91;;;23.46
19102;BMP280;9683;49.028;12.064;2022-07-24T03:19:14;97622.09;;;23.47
19102;BMP280;9683;49.028;12.064;2022-07-24T03:21:42;97629.13;;;23.48
19102;BMP280;9683;49.028;12.064;2022-07-24T03:24:09;97631.63;;;23.45
19102;BMP280;9683;49.028;12.064;2022-07-24T03:26:35;97622.69;;;23.44
19102;BMP280;9683;49.028;12.064;2022-07-24T03:29:02;97623.78;;;23.43
19102;BMP280;9683;49.028;12.064;2022-07-24T03:31:29;97629.22;;;23.43
19102;BMP280;9683;49.028;12.064;2022-07-24T03:33:55;97633.81;;;23.43
19102;BMP280;9683;49.028;12.064;2022-07-24T03:36:22;97633.81;;;23.43
19102;BMP280;9683;49.028;12.064;2022-07-24T03:38:50;97637.63;;;23.42
19102;BMP280;9683;49.028;12.064;2022-07-24T03:41:17;97635.78;;;23.37
19102;BMP280;9683;49.028;12.064;2022-07-24T03:43:43;97632.38;;;23.32
19102;BMP280;9683;49.028;12.064;2022-07-24T03:46:10;97630.00;;;23.25
19102;BMP280;9683;49.028;12.064;2022-07-24T03:48:37;97636.63;;;23.19
19102;BMP280;9683;49.028;12.064;2022-07-24T03:51:04;97637.25;;;23.11
19102;BMP280;9683;49.028;12.064;2022-07-24T03:53:30;97638.19;;;23.06
19102;BMP280;9683;49.028;12.064;2022-07-24T03:55:58;97631.41;;;23.04
19102;BMP280;9683;49.028;12.064;2022-07-24T03:58:25;97639.06;;;23.02
19102;BMP280;9683;49.028;12.064;2022-07-24T04:00:52;97633.63;;;23.02
19102;BMP280;9683;49.028;12.064;2022-07-24T04:03:18;97636.09;;;22.98
19102;BMP280;9683;49.028;12.064;2022-07-24T04:05:45;97644.03;;;22.95
19102;BMP280;9683;49.028;12.064;2022-07-24T04:08:12;97646.59;;;22.86
19102;BMP280;9683;49.028;12.064;2022-07-24T04:10:38;97645.59;;;22.77
19102;BMP280;9683;49.028;12.064;2022-07-24T04:13:06;97649.72;;;22.74
19102;BMP280;9683;49.028;12.064;2022-07-24T04:15:33;97657.06;;;22.74
19102;BMP280;9683;49.028;12.064;2022-07-24T04:18:00;97652.97;;;22.76
19102;BMP280;9683;49.028;12.064;2022-07-24T04:20:26;97654.28;;;22.79
19102;BMP280;9683;49.028;12.064;2022-07-24T04:22:53;97662.50;;;22.74
19102;BMP280;9683;49.028;12.064;2022-07-24T04:25:20;97653.13;;;22.61
19102;BMP280;9683;49.028;12.064;2022-07-24T04:27:46;97663.53;;;22.54
19102;BMP280;9683;49.028;12.064;2022-07-24T04:30:14;97654.84;;;22.52
19102;BMP280;9683;49.028;12.064;2022-07-24T04:32:41;97661.63;;;22.55
19102;BMP280;9683;49.028;12.064;2022-07-24T04:35:08;97649.91;;;22.59
19102;BMP280;9683;49.028;12.064;2022-07-24T04:37:34;97660.44;;;22.61
19102;BMP280;9683;49.028;12.064;2022-07-24T04:40:01;97664.28;;;22.60
19102;BMP280;9683;49.028;12.064;2022-07-24T04:42:28;97656.13;;;22.60
19102;BMP280;9683;49.028;12.064;2022-07-24T04:44:55;97661.84;;;22.58
19102;BMP280;9683;49.028;12.064;2022-07-24T04:47:23;97661.63;;;22.55
19102;BMP280;9683;49.028;12.064;2022-07-24T04:49:49;97666.88;;;22.46
19102;BMP280;9683;49.028;12.064;2022-07-24T04:52:16;97672.31;;;22.46
19102;BMP280;9683;49.028;12.064;2022-07-24T04:54:42;97666.34;;;22.44
19102;BMP280;9683;49.028;12.064;2022-07-24T04:57:09;97665.84;;;22.42
19102;BMP280;9683;49.028;12.064;2022-07-24T04:59:36;97658.59;;;22.32
19102;BMP280;9683;49.028;12.064;2022-07-24T05:02:02;97664.00;;;22.37
19102;BMP280;9683;49.028;12.064;2022-07-24T05:04:30;97659.53;;;22.47
19102;BMP280;9683;49.028;12.064;2022-07-24T05:06:59;97660.53;;;22.56
19102;BMP280;9683;49.028;12.064;2022-07-24T05:09:26;97656.34;;;22.63
19102;BMP280;9683;49.028;12.064;2022-07-24T05:11:53;97662.88;;;22.62
19102;BMP280;9683;49.028;12.064;2022-07-24T05:14:19;97671.03;;;22.62
19102;BMP280;9683;49.028;12.064;2022-07-24T05:16:46;97659.56;;;22.65
19102;BMP280;9683;49.028;12.064;2022-07-24T05:19:13;97667.44;;;22.67
19102;BMP280;9683;49.028;12.064;2022-07-24T05:21:41;97674.22;;;22.69
19102;BMP280;9683;49.028;12.064;2022-07-24T05:24:08;97668.53;;;22.66
19102;BMP280;9683;49.028;12.064;2022-07-24T05:26:35;97662.53;;;22.69
19102;BMP280;9683;49.028;12.064;2022-07-24T05:29:03;97665.16;;;22.79
19102;BMP280;9683;49.028;12.064;2022-07-24T05:31:31;97662.38;;;22.84
19102;BMP280;9683;49.028;12.064;2022-07-24T05:33:58;97660.91;;;22.92
19102;BMP280;9683;49.028;12.064;2022-07-24T05:36:27;97663.50;;;23.02
19102;BMP280;9683;49.028;12.064;2022-07-24T05:38:55;97669.38;;;23.09
19102;BMP280;9683;49.028;12.064;2022-07-24T05:41:22;97663.34;;;22.93
19102;BMP280;9683;49.028;12.064;2022-07-24T05:43:49;97671.13;;;23.00
19102;BMP280;9683;49.028;12.064;2022-07-24T05:46:15;97666.66;;;23.09
19102;BMP280;9683;49.028;12.064;2022-07-24T05:48:42;97667.09;;;23.16
19102;BMP280;9683;49.028;12.064;2022-07-24T05:51:09;97665.94;;;23.22
19102;BMP280;9683;49.028;12.064;2022-07-24T05:53:35;97666.34;;;23.29
19102;BMP280;9683;49.028;12.064;2022-07-24T05:56:04;97666.00;;;23.36
19102;BMP280;9683;49.028;12.064;2022-07-24T05:58:31;97668.63;;;23.41
19102;BMP280;9683;49.028;12.064;2022-07-24T06:00:57;97666.72;;;23.41
19102;BMP280;9683;49.028;12.064;2022-07-24T06:03:24;97668.56;;;23.46
19102;BMP280;9683;49.028;12.064;2022-07-24T06:05:51;97669.00;;;23.53
19102;BMP280;9683;49.028;12.064;2022-07-24T06:08:17;97667.53;;;23.60
19102;BMP280;9683;49.028;12.064;2022-07-24T06:10:44;97678.56;;;23.69
19102;BMP280;9683;49.028;12.064;2022-07-24T06:13:12;97676.25;;;23.76
19102;BMP280;9683;49.028;12.064;2022-07-24T06:15:39;97673.47;;;23.81
19102;BMP280;9683;49.028;12.064;2022-07-24T06:18:06;97669.84;;;23.86
19102;BMP280;9683;49.028;12.064;2022-07-24T06:20:32;97668.97;;;23.90
19102;BMP280;9683;49.028;12.064;2022-07-24T06:22:59;97670.47;;;23.96
19102;BMP280;9683;49.028;12.064;2022-07-24T06:25:26;97671.19;;;24.02
19102;BMP280;9683;49.028;12.064;2022-07-24T06:27:52;97668.41;;;24.07
19102;BMP280;9683;49.028;12.064;2022-07-24T06:30:22;97669.09;;;24.12
19102;BMP280;9683;49.028;12.064;2022-07-24T06:32:49;97672.63;;;24.13
19102;BMP280;9683;49.028;12.064;2022-07-24T06:35:16;97671.13;;;24.07
19102;BMP280;9683;49.028;12.064;2022-07-24T06:37:43;97665.88;;;24.10
19102;BMP280;9683;49.028;12.064;2022-07-24T06:40:11;97666.88;;;24.14
19102;BMP280;9683;49.028;12.064;2022-07-24T06:42:37;97673.38;;;24.18
19102;BMP280;9683;49.028;12.064;2022-07-24T06:45:05;97667.25;;;24.27
19102;BMP280;9683;49.028;12.064;2022-07-24T06:47:33;97669.06;;;24.31
19102;BMP280;9683;49.028;12.064;2022-07-24T06:50:00;97673.59;;;24.36
19102;BMP280;9683;49.028;12.064;2022-07-24T06:52:27;97661.00;;;24.40
19102;BMP280;9683;49.028;12.064;2022-07-24T06:54:53;97663.31;;;24.46
19102;BMP280;9683;49.028;12.064;2022-07-24T06:57:20;97661.78;;;24.54
19102;BMP280;9683;49.028;12.064;2022-07-24T06:59:47;97653.22;;;24.60
19102;BMP280;9683;49.028;12.064;2022-07-24T07:02:13;97659.88;;;24.68
19102;BMP280;9683;49.028;12.064;2022-07-24T07:04:41;97656.44;;;24.76
19102;BMP280;9683;49.028;12.064;2022-07-24T07:07:08;97666.44;;;24.81
19102;BMP280;9683;49.028;12.064;2022-07-24T07:09:35;97648.59;;;24.88
19102;BMP280;9683;49.028;12.064;2022-07-24T07:12:02;97653.94;;;24.93
19102;BMP280;9683;49.028;12.064;2022-07-24T07:14:28;97658.97;;;25.00
19102;BMP280;9683;49.028;12.064;2022-07-24T07:16:55;97659.38;;;25.07
19102;BMP280;9683;49.028;12.064;2022-07-24T07:19:22;97654.47;;;25.18
19102;BMP280;9683;49.028;12.064;2022-07-24T07:21:50;97655.69;;;25.25
19102;BMP280;9683;49.028;12.064;2022-07-24T07:24:16;97656.47;;;25.26
19102;BMP280;9683;49.028;12.064;2022-07-24T07:26:43;97653.97;;;25.29
19102;BMP280;9683;49.028;12.064;2022-07-24T07:29:10;97661.53;;;25.32
19102;BMP280;9683;49.028;12.064;2022-07-24T07:31:36;97656.75;;;25.38
19102;BMP280;9683;49.028;12.064;2022-07-24T07:34:03;97654.22;;;25.41
19102;BMP280;9683;49.028;12.064;2022-07-24T07:36:30;97657.13;;;25.45
19102;BMP280;9683;49.028;12.064;2022-07-24T07:38:58;97656.69;;;25.51
19102;BMP280;9683;49.028;12.064;2022-07-24T07:41:24;97660.78;;;25.54
19102;BMP280;9683;49.028;12.064;2022-07-24T07:43:51;97655.97;;;25.60
19102;BMP280;9683;49.028;12.064;2022-07-24T07:46:18;97659.69;;;25.64
19102;BMP280;9683;49.028;12.064;2022-07-24T07:48:45;97668.56;;;25.69
19102;BMP280;9683;49.028;12.064;2022-07-24T07:51:11;97662.19;;;25.74
19102;BMP280;9683;49.028;12.064;2022-07-24T07:53:39;97665.72;;;25.74
19102;BMP280;9683;49.028;12.064;2022-07-24T07:56:07;97664.47;;;25.80
19102;BMP280;9683;49.028;12.064;2022-07-24T07:58:34;97659.22;;;25.84
19102;BMP280;9683;49.028;12.064;2022-07-24T08:01:00;97668.06;;;25.89
19102;BMP280;9683;49.028;12.064;2022-07-24T08:03:27;97665.22;;;25.94
19102;BMP280;9683;49.028;12.064;2022-07-24T08:05:54;97668.44;;;25.96
19102;BMP280;9683;49.028;12.064;2022-07-24T08:08:20;97666.38;;;26.02
19102;BMP280;9683;49.028;12.064;2022-07-24T08:10:47;97679.09;;;26.07
19102;BMP280;9683;49.028;12.064;2022-07-24T08:13:15;97677.84;;;26.13
19102;BMP280;9683;49.028;12.064;2022-07-24T08:15:43;97670.13;;;26.15
19102;BMP280;9683;49.028;12.064;2022-07-24T08:18:10;97670.31;;;26.18
19102;BMP280;9683;49.028;12.064;2022-07-24T08:20:37;97663.75;;;26.19
19102;BMP280;9683;49.028;12.064;2022-07-24T08:23:03;97669.91;;;26.25
19102;BMP280;9683;49.028;12.064;2022-07-24T08:25:30;97666.41;;;26.33
19102;BMP280;9683;49.028;12.064;2022-07-24T08:27:57;97674.31;;;26.34
19102;BMP280;9683;49.028;12.064;2022-07-24T08:30:25;97668.06;;;26.42
19102;BMP280;9683;49.028;12.064;2022-07-24T08:32:52;97665.00;;;26.44
19102;BMP280;9683;49.028;12.064;2022-07-24T08:35:19;97656.69;;;26.49
19102;BMP280;9683;49.028;12.064;2022-07-24T08:37:46;97660.69;;;26.52
19102;BMP280;9683;49.028;12.064;2022-07-24T08:40:12;97657.81;;;26.57
19102;BMP280;9683;49.028;12.064;2022-07-24T08:42:39;97661.38;;;26.57
19102;BMP280;9683;49.028;12.064;2022-07-24T08:45:07;97657.06;;;26.65
19102;BMP280;9683;49.028;12.064;2022-07-24T08:47:36;97666.41;;;26.72
19102;BMP280;9683;49.028;12.064;2022-07-24T08:50:06;97665.13;;;26.78
19102;BMP280;9683;49.028;12.064;2022-07-24T08:52:34;97664.19;;;26.83
19102;BMP280;9683;49.028;12.064;2022-07-24T08:55:02;97661.34;;;26.88
19102;BMP280;9683;49.028;12.064;2022-07-24T08:57:29;97666.81;;;26.88
19102;BMP280;9683;49.028;12.064;2022-07-24T08:59:56;97662.31;;;26.92
19102;BMP280;9683;49.028;12.064;2022-07-24T09:02:22;97663.28;;;26.96
19102;BMP280;9683;49.028;12.064;2022-07-24T09:04:58;97660.56;;;27.05
19102;BMP280;9683;49.028;12.064;2022-07-24T09:07:27;97654.59;;;27.11
19102;BMP280;9683;49.028;12.064;2022-07-24T09:09:58;97656.38;;;27.16
19102;BMP280;9683;49.028;12.064;2022-07-24T09:12:25;97648.34;;;27.11
19102;BMP280;9683;49.028;12.064;2022-07-24T09:14:52;97652.22;;;27.18
19102;BMP280;9683;49.028;12.064;2022-07-24T09:17:20;97652.22;;;27.27
19102;BMP280;9683;49.028;12.064;2022-07-24T09:19:49;97650.78;;;27.29
19102;BMP280;9683;49.028;12.064;2022-07-24T09:22:23;97649.50;;;27.35
19102;BMP280;9683;49.028;12.064;2022-07-24T09:25:07;97642.72;;;27.42
19102;BMP280;9683;49.028;12.064;2022-07-24T09:27:34;97645.03;;;27.48
19102;BMP280;9683;49.028;12.064;2022-07-24T09:30:01;97649.19;;;27.54
19102;BMP280;9683;49.028;12.064;2022-07-24T09:32:29;97646.16;;;27.56
19102;BMP280;9683;49.028;12.064;2022-07-24T09:34:56;97641.63;;;27.60
19102;BMP280;9683;49.028;12.064;2022-07-24T09:37:26;97645.94;;;27.69
19102;BMP280;9683;49.028;12.064;2022-07-24T09:40:06;97636.13;;;27.77
19102;BMP280;9683;49.028;12.064;2022-07-24T09:42:33;97637.91;;;27.82
19102;BMP280;9683;49.028;12.064;2022-07-24T09:45:06;97636.59;;;27.88
19102;BMP280;9683;49.028;12.064;2022-07-24T09:47:34;97638.66;;;27.91
19102;BMP280;9683;49.028;12.064;2022-07-24T09:50:15;97638.19;;;27.97
19102;BMP280;9683;49.028;12.064;2022-07-24T09:52:44;97636.84;;;28.03
19102;BMP280;9683;49.028;12.064;2022-07-24T09:55:22;97639.16;;;28.10
19102;BMP280;9683;49.028;12.064;2022-07-24T09:57:51;97643.28;;;28.16
19102;BMP280;9683;49.028;12.064;2022-07-24T10:00:18;97627.03;;;28.19
19102;BMP280;9683;49.028;12.064;2022-07-24T10:02:45;97624.75;;;28.21
19102;BMP280;9683;49.028;12.064;2022-07-24T10:05:13;97622.66;;;28.27
19102;BMP280;9683;49.028;12.064;2022-07-24T10:07:42;97628.72;;;28.33
19102;BMP280;9683;49.028;12.064;2022-07-24T10:10:11;97631.44;;;28.41
19102;BMP280;9683;49.028;12.064;2022-07-24T10:12:38;97628.06;;;28.44
19102;BMP280;9683;49.028;12.064;2022-07-24T10:15:07;97623.19;;;28.50
19102;BMP280;9683;49.028;12.064;2022-07-24T10:17:47;97624.28;;;28.57
19102;BMP280;9683;49.028;12.064;2022-07-24T10:20:33;97622.81;;;28.60
19102;BMP280;9683;49.028;12.064;2022-07-24T10:23:04;97611.19;;;28.63
19102;BMP280;9683;49.028;12.064;2022-07-24T10:25:42;97612.47;;;28.65
19102;BMP280;9683;49.028;12.064;2022-07-24T10:28:14;97613.09;;;28.71
19102;BMP280;9683;49.028;12.064;2022-07-24T10:30:46;97609.38;;;28.76
19102;BMP280;9683;49.028;12.064;2022-07-24T10:33:13;97605.75;;;28.84
19102;BMP280;9683;49.028;12.064;2022-07-24T10:35:40;97613.81;;;28.89
19102;BMP280;9683;49.028;12.064;2022-07-24T10:38:12;97603.75;;;28.93
19102;BMP280;9683;49.028;12.064;2022-07-24T10:40:45;97615.34;;;28.98
19102;BMP280;9683;49.028;12.064;2022-07-24T10:43:14;97607.75;;;29.04
19102;BMP280;9683;49.028;12.064;2022-07-24T10:45:42;97609.94;;;29.10
19102;BMP280;9683;49.028;12.064;2022-07-24T10:48:30;97601.63;;;29.19
19102;BMP280;9683;49.028;12.064;2022-07-24T10:51:11;97603.38;;;29.24
19102;BMP280;9683;49.028;12.064;2022-07-24T10:54:01;97602.53;;;29.32
19102;BMP280;9683;49.028;12.064;2022-07-24T10:56:38;97598.44;;;29.38
19102;BMP280;9683;49.028;12.064;2022-07-24T10:59:08;97599.25;;;29.38
19102;BMP280;9683;49.028;12.064;2022-07-24T11:01:38;97602.13;;;29.42
19102;BMP280;9683;49.028;12.064;2022-07-24T11:04:25;97600.78;;;29.48
19102;BMP280;9683;49.028;12.064;2022-07-24T11:06:54;97608.31;;;29.51
19102;BMP280;9683;49.028;12.064;2022-07-24T11:09:23;97601.38;;;29.53
19102;BMP280;9683;49.028;12.064;2022-07-24T11:12:05;97593.59;;;29.55
19102;BMP280;9683;49.028;12.064;2022-07-24T11:14:49;97593.72;;;29.59
19102;BMP280;9683;49.028;12.064;2022-07-24T11:17:39;97583.66;;;29.63
19102;BMP280;9683;49.028;12.064;2022-07-24T11:20:08;97590.31;;;29.62
19102;BMP280;9683;49.028;12.064;2022-07-24T11:22:40;97586.06;;;29.65
19102;BMP280;9683;49.028;12.064;2022-07-24T11:25:12;97591.69;;;29.68
19102;BMP280;9683;49.028;12.064;2022-07-24T11:27:44;97576.13;;;29.72
19102;BMP280;9683;49.028;12.064;2022-07-24T11:30:12;97577.88;;;29.77
19102;BMP280;9683;49.028;12.064;2022-07-24T11:32:39;97572.16;;;29.82
19102;BMP280;9683;49.028;12.064;2022-07-24T11:35:07;97566.94;;;29.89
19102;BMP280;9683;49.028;12.064;2022-07-24T11:37:35;97578.50;;;29.94
19102;BMP280;9683;49.028;12.064;2022-07-24T11:40:02;97566.94;;;30.01
19102;BMP280;9683;49.028;12.064;2022-07-24T11:42:32;97570.06;;;30.12
19102;BMP280;9683;49.028;12.064;2022-07-24T11:44:58;97562.97;;;30.23
19102;BMP280;9683;49.028;12.064;2022-07-24T11:47:27;97570.53;;;30.38
19102;BMP280;9683;49.028;12.064;2022-07-24T11:49:55;97564.59;;;30.48
19102;BMP280;9683;49.028;12.064;2022-07-24T11:52:24;97561.97;;;30.52
19102;BMP280;9683;49.028;12.064;2022-07-24T11:54:53;97558.16;;;30.56
19102;BMP280;9683;49.028;12.064;2022-07-24T11:57:21;97565.06;;;30.62
19102;BMP280;9683;49.028;12.064;2022-07-24T11:59:50;97558.97;;;30.69
19102;BMP280;9683;49.028;12.064;2022-07-24T12:02:18;97553.25;;;30.62
19102;BMP280;9683;49.028;12.064;2022-07-24T12:04:46;97548.78;;;30.57
19102;BMP280;9683;49.028;12.064;2022-07-24T12:07:15;97553.84;;;30.55
19102;BMP280;9683;49.028;12.064;2022-07-24T12:09:48;97545.94;;;30.54
19102;BMP280;9683;49.028;12.064;2022-07-24T12:12:24;97543.50;;;30.52
19102;BMP280;9683;49.028;12.064;2022-07-24T12:14:54;97543.97;;;30.42
19102;BMP280;9683;49.028;12.064;2022-07-24T12:17:25;97530.88;;;30.39
19102;BMP280;9683;49.028;12.064;2022-07-24T12:19:54;97539.28;;;30.42
19102;BMP280;9683;49.028;12.064;2022-07-24T12:22:22;97533.78;;;30.42
19102;BMP280;9683;49.028;12.064;2022-07-24T12:24:49;97539.59;;;30.41
19102;BMP280;9683;49.028;12.064;2022-07-24T12:27:35;97533.09;;;30.33
19102;BMP280;9683;49.028;12.064;2022-07-24T12:30:16;97527.81;;;30.28
19102;BMP280;9683;49.028;12.064;2022-07-24T12:32:55;97528.03;;;30.23
19102;BMP280;9683;49.028;12.064;2022-07-24T12:35:23;97521.41;;;30.24
19102;BMP280;9683;49.028;12.064;2022-07-24T12:37:51;97522.31;;;30.28
19102;BMP280;9683;49.028;12.064;2022-07-24T12:40:29;97518.06;;;30.43
19102;BMP280;9683;49.028;12.064;2022-07-24T12:43:01;97516.16;;;30.56
19102;BMP280;9683;49.028;12.064;2022-07-24T12:45:30;97503.75;;;30.62
19102;BMP280;9683;49.028;12.064;2022-07-24T12:48:16;97508.50;;;30.77
19102;BMP280;9683;49.028;12.064;2022-07-24T12:50:58;97500.38;;;30.80
19102;BMP280;9683;49.028;12.064;2022-07-24T12:53:26;97505.38;;;30.90
19102;BMP280;9683;49.028;12.064;2022-07-24T12:56:07;97497.56;;;31.05
19102;BMP280;9683;49.028;12.064;2022-07-24T12:59:04;97496.00;;;31.19
19102;BMP280;9683;49.028;12.064;2022-07-24T13:01:49;97497.59;;;31.20
19102;BMP280;9683;49.028;12.064;2022-07-24T13:04:17;97497.59;;;31.20
19102;BMP280;9683;49.028;12.064;2022-07-24T13:06:47;97490.72;;;31.26
19102;BMP280;9683;49.028;12.064;2022-07-24T13:09:15;97492.41;;;31.31
19102;BMP280;9683;49.028;12.064;2022-07-24T13:11:43;97486.28;;;31.37
19102;BMP280;9683;49.028;12.064;2022-07-24T13:14:11;97487.16;;;31.42
19102;BMP280;9683;49.028;12.064;2022-07-24T13:16:40;97485.50;;;31.53
19102;BMP280;9683;49.028;12.064;2022-07-24T13:19:09;97489.00;;;31.65
19102;BMP280;9683;49.028;12.064;2022-07-24T13:21:37;97491.69;;;31.77
19102;BMP280;9683;49.028;12.064;2022-07-24T13:24:05;97490.72;;;31.86
19102;BMP280;9683;49.028;12.064;2022-07-24T13:26:32;97485.47;;;31.96
19102;BMP280;9683;49.028;12.064;2022-07-24T13:28:59;97480.66;;;32.09
19102;BMP280;9683;49.028;12.064;2022-07-24T13:31:25;97481.56;;;32.13
19102;BMP280;9683;49.028;12.064;2022-07-24T13:33:52;97483.25;;;32.02
19102;BMP280;9683;49.028;12.064;2022-07-24T13:36:20;97483.31;;;32.05
19102;BMP280;9683;49.028;12.064;2022-07-24T13:38:47;97478.81;;;32.13
19102;BMP280;9683;49.028;12.064;2022-07-24T13:41:14;97473.75;;;32.15
19102;BMP280;9683;49.028;12.064;2022-07-24T13:43:42;97472.56;;;32.16
19102;BMP280;9683;49.028;12.064;2022-07-24T13:46:09;97464.00;;;32.21
19102;BMP280;9683;49.028;12.064;2022-07-24T13:48:35;97462.66;;;32.31
19102;BMP280;9683;49.028;12.064;2022-07-24T13:51:02;97470.59;;;32.16
19102;BMP280;9683;49.028;12.064;2022-07-24T13:53:30;97464.47;;;32.23
19102;BMP280;9683;49.028;12.064;2022-07-24T13:55:57;97448.94;;;32.34
19102;BMP280;9683;49.028;12.064;2022-07-24T13:58:24;97451.59;;;32.46
19102;BMP280;9683;49.028;12.064;2022-07-24T14:00:50;97445.13;;;32.58
19102;BMP280;9683;49.028;12.064;2022-07-24T14:03:17;97451.59;;;32.62
19102;BMP280;9683;49.028;12.064;2022-07-24T14:05:44;97440.16;;;32.63
19102;BMP280;9683;49.028;12.064;2022-07-24T14:08:10;97441.91;;;32.71
19102;BMP280;9683;49.028;12.064;2022-07-24T14:10:38;97441.13;;;32.90
19102;BMP280;9683;49.028;12.064;2022-07-24T14:13:05;97437.47;;;33.05
19102;BMP280;9683;49.028;12.064;2022-07-24T14:15:31;97434.72;;;33.25